createdAt,value
2019-03-05T21:35:00.506Z,5.50
2019-03-05T21:37:31.742Z,5.47
2019-03-05T21:40:02.643Z,5.46
2019-03-05T21:42:33.513Z,5.44
2019-03-05T21:45:07.220Z,5.43
2019-03-05T21:47:38.201Z,5.51
2019-03-05T21:50:12.352Z,5.48
2019-03-05T21:52:43.239Z,5.46
2019-03-05T21:55:16.500Z,5.49
2019-03-05T21:57:47.732Z,5.34
2019-03-05T22:00:21.698Z,5.45
2019-03-05T22:02:52.872Z,5.39
2019-03-05T22:05:23.759Z,5.41
2019-03-05T22:07:54.724Z,5.40
2019-03-05T22:10:25.591Z,5.45
2019-03-05T22:12:56.517Z,5.42
2019-03-05T22:15:36.882Z,5.54
2019-03-05T22:18:07.753Z,5.41
2019-03-05T22:20:38.656Z,5.38
2019-03-05T22:23:09.703Z,5.42
2019-03-05T22:25:40.603Z,5.38
2019-03-05T22:28:11.502Z,5.46
2019-03-05T22:30:42.466Z,5.57
2019-03-05T22:33:14.536Z,5.57
2019-03-05T22:35:46.299Z,5.55
2019-03-05T22:38:17.291Z,5.55
2019-03-05T22:40:48.160Z,5.56
2019-03-05T22:43:19.361Z,5.66
2019-03-05T22:45:52.631Z,5.61
2019-03-05T22:48:23.434Z,5.67
2019-03-05T22:50:54.286Z,5.58
2019-03-05T22:53:25.217Z,5.51
2019-03-05T22:55:56.988Z,5.40
2019-03-05T22:58:27.825Z,5.46
2019-03-05T23:01:05.446Z,5.42
2019-03-05T23:03:36.936Z,5.38
2019-03-05T23:06:10.876Z,5.41
2019-03-05T23:08:41.787Z,5.32
2019-03-05T23:11:12.643Z,5.30
2019-03-05T23:13:44.737Z,5.27
2019-03-05T23:16:15.694Z,5.28
2019-03-05T23:18:47.137Z,5.16
2019-03-05T23:21:19.175Z,5.05
2019-03-05T23:23:50.364Z,5.07
2019-03-05T23:26:21.155Z,5.12
2019-03-05T23:28:52.071Z,5.01
2019-03-05T23:31:22.869Z,5.09
2019-03-05T23:33:53.789Z,5.05
2019-03-05T23:36:24.635Z,5.09
2019-03-05T23:38:55.697Z,5.00
2019-03-05T23:41:26.590Z,4.99
2019-03-05T23:43:57.419Z,4.96
2019-03-05T23:46:28.764Z,4.91
2019-03-05T23:48:59.590Z,4.84
2019-03-05T23:51:30.440Z,4.87
2019-03-05T23:54:01.450Z,4.84
2019-03-05T23:56:32.267Z,4.80
2019-03-05T23:59:03.092Z,4.82
